Time;durP1;ratioP1;P1;durP2;ratioP2;P2;SDS_P1;SDS_P2;PMS_P1;PMS_P2;Temp;Humidity;BMP_temperature;BMP_pressure;BME280_temperature;BME280_humidity;BME280_pressure;Samples;Min_cycle;Max_cycle;Signal;HPM_P1;HPM_P2
2022/03/29 00:01:12;;;;;;;38.75;18.90;;;7.20;99.90;;;;;;5051261;28;20073;-75
2022/03/29 00:03:38;;;;;;;30.50;18.48;;;7.20;99.90;;;;;;5033444;28;20037;-75
2022/03/29 00:06:03;;;;;;;31.90;18.95;;;7.30;99.90;;;;;;5050907;28;20523;-74
2022/03/29 00:08:29;;;;;;;30.95;18.42;;;7.30;99.90;;;;;;5033074;28;20572;-75
2022/03/29 00:10:55;;;;;;;29.02;18.05;;;7.30;99.90;;;;;;5054380;28;20029;-74
2022/03/29 00:13:20;;;;;;;30.02;17.88;;;7.30;99.90;;;;;;5036718;28;20032;-74
2022/03/29 00:15:46;;;;;;;31.83;18.98;;;7.30;99.90;;;;;;5054148;28;20163;-75
2022/03/29 00:18:11;;;;;;;30.33;19.23;;;7.20;99.90;;;;;;5054406;28;20052;-74
2022/03/29 00:20:37;;;;;;;30.05;17.52;;;7.30;99.90;;;;;;5036477;28;20041;-74
2022/03/29 00:23:03;;;;;;;27.50;17.13;;;7.30;99.90;;;;;;5054473;28;20037;-74
2022/03/29 00:25:29;;;;;;;28.48;17.23;;;7.30;99.90;;;;;;5054084;28;20067;-75
2022/03/29 00:27:55;;;;;;;25.95;16.92;;;7.20;99.90;;;;;;5054296;28;20498;-75
2022/03/29 00:30:20;;;;;;;29.55;18.10;;;7.30;99.90;;;;;;5036273;28;20049;-74
2022/03/29 00:32:47;;;;;;;31.15;18.77;;;7.30;99.90;;;;;;5054421;28;20037;-75
2022/03/29 00:35:12;;;;;;;28.02;17.35;;;7.30;99.90;;;;;;5054098;28;20029;-74
2022/03/29 00:37:40;;;;;;;32.42;18.60;;;7.30;99.90;;;;;;5036098;28;20479;-74
2022/03/29 00:40:08;;;;;;;31.55;18.77;;;7.40;99.90;;;;;;5054027;28;20045;-74
2022/03/29 00:42:34;;;;;;;33.72;18.25;;;7.30;99.90;;;;;;5036335;28;20558;-74
2022/03/29 00:44:59;;;;;;;30.33;18.10;;;7.30;99.90;;;;;;5053873;28;20523;-74
2022/03/29 00:47:25;;;;;;;31.88;19.13;;;7.30;99.90;;;;;;5053632;28;20048;-75
2022/03/29 00:49:50;;;;;;;31.25;19.00;;;7.20;99.90;;;;;;5036036;28;20079;-74
2022/03/29 00:52:17;;;;;;;31.48;18.33;;;7.30;99.90;;;;;;5053987;28;20078;-74
2022/03/29 00:54:44;;;;;;;33.15;20.85;;;7.20;99.90;;;;;;5053765;28;20506;-74
2022/03/29 00:57:11;;;;;;;34.60;20.27;;;7.20;99.90;;;;;;5035473;28;20498;-74
2022/03/29 00:59:39;;;;;;;38.72;21.20;;;7.20;99.90;;;;;;5053552;28;20059;-74
2022/03/29 01:02:05;;;;;;;35.08;19.70;;;7.20;99.90;;;;;;5036089;28;20047;-74
2022/03/29 01:04:30;;;;;;;37.47;22.40;;;7.20;99.90;;;;;;5035727;28;20062;-74
2022/03/29 01:06:58;;;;;;;32.35;19.60;;;7.30;99.90;;;;;;5035340;28;20036;-74
2022/03/29 01:09:29;;;;;;;37.75;21.05;;;7.20;99.90;;;;;;5053591;28;20045;-75
2022/03/29 01:11:56;;;;;;;37.58;21.38;;;7.10;99.90;;;;;;5035604;28;20131;-74
2022/03/29 01:14:22;;;;;;;33.08;20.65;;;7.10;99.90;;;;;;5035580;28;20048;-74
2022/03/29 01:19:35;;;;;;;37.25;21.77;;;7.10;99.90;;;;;;5035353;28;20562;-74
2022/03/29 01:22:03;;;;;;;36.97;20.23;;;7.10;99.90;;;;;;5018101;28;20048;-74
2022/03/29 01:24:29;;;;;;;35.60;20.15;;;7.10;99.90;;;;;;5035290;28;20041;-74
2022/03/29 01:27:00;;;;;;;33.97;20.58;;;7.10;99.90;;;;;;5052749;28;20036;-74
2022/03/29 01:29:27;;;;;;;38.17;21.05;;;7.10;99.90;;;;;;5053055;28;20521;-74
2022/03/29 01:31:53;;;;;;;39.38;21.35;;;7.10;99.90;;;;;;5035253;28;20049;-74
2022/03/29 01:34:20;;;;;;;30.92;19.63;;;7.10;99.90;;;;;;5035455;28;20087;-74
2022/03/29 01:36:46;;;;;;;31.25;19.35;;;7.10;99.90;;;;;;5034929;28;20045;-74
2022/03/29 01:39:13;;;;;;;33.70;19.70;;;7.10;99.90;;;;;;5035392;28;20041;-74
2022/03/29 01:41:39;;;;;;;31.58;20.13;;;7.20;99.90;;;;;;5034917;28;20052;-74
2022/03/29 01:44:06;;;;;;;31.60;19.83;;;7.10;99.90;;;;;;5034822;28;20097;-75
2022/03/29 01:46:32;;;;;;;33.50;20.05;;;7.20;99.90;;;;;;5034073;28;20590;-74
2022/03/29 01:48:59;;;;;;;32.83;20.40;;;7.20;99.90;;;;;;5034745;28;20076;-74
2022/03/29 01:51:24;;;;;;;32.78;19.35;;;7.20;99.90;;;;;;5034879;28;20080;-75
2022/03/29 01:53:59;;;;;;;35.92;21.70;;;7.20;99.90;;;;;;5052703;28;20044;-74
2022/03/29 01:56:29;;;;;;;34.63;21.67;;;7.20;99.90;;;;;;5052249;28;20060;-75
2022/03/29 01:58:56;;;;;;;38.83;22.00;;;7.20;99.90;;;;;;5034505;28;20084;-74
2022/03/29 02:01:21;;;;;;;41.08;21.33;;;7.20;99.90;;;;;;5052594;28;20502;-74
2022/03/29 02:03:47;;;;;;;37.10;21.15;;;7.20;99.90;;;;;;5052417;28;20079;-75
2022/03/29 02:06:13;;;;;;;41.20;22.10;;;7.30;99.90;;;;;;5034240;28;20112;-75
2022/03/29 02:08:39;;;;;;;42.33;22.20;;;7.20;99.90;;;;;;5052554;28;20037;-75
2022/03/29 02:11:04;;;;;;;39.33;20.80;;;7.00;99.90;;;;;;5034393;28;20044;-74
2022/03/29 02:13:30;;;;;;;40.42;23.10;;;7.00;99.90;;;;;;5052412;28;20060;-74
2022/03/29 02:15:55;;;;;;;41.90;23.27;;;7.00;99.90;;;;;;5034119;28;20041;-74
2022/03/29 02:18:21;;;;;;;34.38;21.88;;;7.00;99.90;;;;;;5034362;28;20041;-74
2022/03/29 02:20:47;;;;;;;45.83;23.83;;;7.00;99.90;;;;;;5052090;28;20426;-74
2022/03/29 02:23:15;;;;;;;40.08;22.83;;;7.10;99.90;;;;;;5034357;28;20072;-74
2022/03/29 02:25:42;;;;;;;38.75;22.92;;;7.00;99.90;;;;;;5033945;28;20131;-74
2022/03/29 02:28:08;;;;;;;41.08;22.35;;;7.00;99.90;;;;;;5052125;28;20442;-75
2022/03/29 02:30:35;;;;;;;40.50;22.63;;;7.00;99.90;;;;;;5034103;28;20040;-75
2022/03/29 02:33:05;;;;;;;37.10;22.67;;;7.10;99.90;;;;;;5033739;28;20103;-74
2022/03/29 02:35:30;;;;;;;39.33;22.13;;;7.10;99.90;;;;;;5034017;28;20383;-74
2022/03/29 02:37:56;;;;;;;39.60;21.92;;;7.10;99.90;;;;;;5034233;28;20043;-75
2022/03/29 02:40:22;;;;;;;37.80;21.92;;;7.00;99.90;;;;;;5034002;28;20124;-75
2022/03/29 02:42:53;;;;;;;38.65;21.90;;;7.00;99.90;;;;;;5051829;28;20033;-74
2022/03/29 02:45:21;;;;;;;38.00;22.23;;;7.10;99.90;;;;;;5033854;28;20577;-74
2022/03/29 02:47:50;;;;;;;39.33;22.00;;;7.00;99.90;;;;;;5033800;28;20037;-74
2022/03/29 02:50:17;;;;;;;42.00;22.25;;;6.90;99.90;;;;;;5052001;28;20045;-74
2022/03/29 02:52:47;;;;;;;37.60;21.90;;;7.00;99.90;;;;;;5051796;28;20095;-74
2022/03/29 02:55:14;;;;;;;35.65;21.58;;;7.00;99.90;;;;;;5051659;28;20124;-74
2022/03/29 02:57:41;;;;;;;40.05;22.60;;;7.00;99.90;;;;;;5033866;28;20099;-74
2022/03/29 03:00:07;;;;;;;38.38;22.30;;;7.00;99.90;;;;;;5051570;28;20044;-75
2022/03/29 03:02:33;;;;;;;42.63;23.25;;;6.90;99.90;;;;;;5051791;28;20041;-74
2022/03/29 03:04:59;;;;;;;39.80;21.75;;;6.90;99.90;;;;;;5033757;28;20079;-75
2022/03/29 03:07:26;;;;;;;41.13;22.25;;;6.90;99.90;;;;;;5051364;28;20059;-75
2022/03/29 03:09:52;;;;;;;41.95;21.52;;;7.00;99.90;;;;;;5051598;28;20048;-74
2022/03/29 03:12:18;;;;;;;44.83;21.95;;;7.00;99.90;;;;;;5051661;28;20060;-74
2022/03/29 03:14:43;;;;;;;39.78;21.30;;;7.00;99.90;;;;;;5051477;28;20502;-74
2022/03/29 03:17:09;;;;;;;38.58;21.30;;;6.90;99.90;;;;;;5033611;28;20507;-74
2022/03/29 03:19:34;;;;;;;38.33;22.33;;;6.90;99.90;;;;;;5033600;28;20495;-74
2022/03/29 03:22:00;;;;;;;38.72;21.48;;;6.90;99.90;;;;;;5051603;28;20114;-74
2022/03/29 03:24:26;;;;;;;39.97;23.33;;;6.90;99.90;;;;;;5033776;28;20032;-74
2022/03/29 03:26:51;;;;;;;38.97;22.02;;;6.90;99.90;;;;;;5033461;28;20068;-74
2022/03/29 03:29:17;;;;;;;38.03;21.75;;;7.00;99.90;;;;;;5051338;28;20434;-74
2022/03/29 03:31:42;;;;;;;39.75;21.00;;;7.00;99.90;;;;;;5051302;28;20044;-74
2022/03/29 03:34:08;;;;;;;47.65;23.77;;;7.10;99.90;;;;;;5051480;28;20043;-74
2022/03/29 03:36:33;;;;;;;36.17;22.55;;;7.00;99.90;;;;;;5033140;28;20049;-75
2022/03/29 03:38:59;;;;;;;34.30;21.77;;;7.00;99.90;;;;;;5051307;28;20388;-74
2022/03/29 03:41:24;;;;;;;37.90;21.20;;;7.00;99.90;;;;;;5051326;28;20124;-74
2022/03/29 03:43:50;;;;;;;35.95;21.45;;;7.00;99.90;;;;;;5051397;28;20037;-74
2022/03/29 03:46:16;;;;;;;41.88;23.38;;;7.00;99.90;;;;;;5054815;28;20055;-75
2022/03/29 03:48:41;;;;;;;37.80;21.08;;;7.00;99.90;;;;;;5055277;28;20589;-74
2022/03/29 03:51:07;;;;;;;35.80;22.60;;;7.00;99.90;;;;;;5055158;28;20036;-74
2022/03/29 03:53:33;;;;;;;34.38;20.33;;;7.10;99.90;;;;;;5054968;28;20037;-75
2022/03/29 03:55:59;;;;;;;42.90;21.45;;;7.10;99.90;;;;;;5054622;28;20517;-74
2022/03/29 03:58:24;;;;;;;38.10;23.00;;;7.10;99.90;;;;;;5054776;28;20033;-74
2022/03/29 04:00:51;;;;;;;41.08;22.25;;;7.10;99.90;;;;;;5036835;28;20572;-74
2022/03/29 04:03:17;;;;;;;35.80;22.35;;;7.10;99.90;;;;;;5054794;28;20041;-74
2022/03/29 04:05:43;;;;;;;39.22;21.33;;;7.00;99.90;;;;;;5036674;28;20043;-74
2022/03/29 04:08:08;;;;;;;41.08;21.58;;;7.10;99.90;;;;;;5054610;28;20491;-75
2022/03/29 04:10:34;;;;;;;34.97;21.08;;;7.10;99.90;;;;;;5054729;28;20056;-74
2022/03/29 04:13:01;;;;;;;39.97;22.98;;;7.10;99.90;;;;;;5036291;28;20080;-75
2022/03/29 04:15:26;;;;;;;39.08;21.58;;;7.10;99.90;;;;;;5051632;28;20082;-75
2022/03/29 04:17:52;;;;;;;42.28;23.92;;;7.20;99.90;;;;;;5054458;28;20045;-74
2022/03/29 04:20:18;;;;;;;38.75;21.67;;;7.20;99.90;;;;;;5054604;28;20650;-74
2022/03/29 04:22:44;;;;;;;44.67;21.60;;;7.10;99.90;;;;;;5036493;28;20103;-74
2022/03/29 04:25:10;;;;;;;46.72;22.38;;;7.20;99.90;;;;;;5036725;28;20052;-74
2022/03/29 04:27:36;;;;;;;40.33;23.25;;;7.10;99.90;;;;;;5054015;28;20116;-74
2022/03/29 04:30:03;;;;;;;38.88;21.73;;;7.10;99.90;;;;;;5054271;28;20124;-75
2022/03/29 04:32:28;;;;;;;40.45;22.08;;;7.20;99.90;;;;;;5054054;28;20120;-74
2022/03/29 04:34:54;;;;;;;42.22;23.45;;;7.20;99.90;;;;;;5054300;28;20484;-74
2022/03/29 04:37:20;;;;;;;38.20;22.30;;;7.20;99.90;;;;;;5053886;28;20119;-74
2022/03/29 04:39:46;;;;;;;37.05;21.23;;;7.20;99.90;;;;;;5054098;28;20049;-74
2022/03/29 04:42:11;;;;;;;38.47;21.80;;;7.20;99.90;;;;;;5054035;28;20041;-74
2022/03/29 04:44:37;;;;;;;34.95;22.10;;;7.20;99.90;;;;;;5053963;28;20037;-74
2022/03/29 04:47:04;;;;;;;41.53;22.40;;;7.20;99.90;;;;;;5035943;28;20041;-74
2022/03/29 04:49:30;;;;;;;32.97;20.20;;;7.30;99.90;;;;;;5036309;28;20450;-74
2022/03/29 04:51:55;;;;;;;38.38;21.85;;;7.20;99.90;;;;;;5036269;28;20037;-75
2022/03/29 04:54:21;;;;;;;44.45;22.77;;;7.20;99.90;;;;;;5036013;28;20041;-74
2022/03/29 04:56:46;;;;;;;36.97;23.10;;;7.20;99.90;;;;;;5035627;28;20044;-74
2022/03/29 04:59:12;;;;;;;37.83;23.20;;;7.10;99.90;;;;;;5053608;28;20045;-74
2022/03/29 05:01:39;;;;;;;37.45;20.80;;;7.10;99.90;;;;;;5053372;28;20152;-74
2022/03/29 05:04:05;;;;;;;48.05;21.77;;;7.20;99.90;;;;;;5053798;28;20037;-74
2022/03/29 05:06:31;;;;;;;38.45;22.65;;;7.20;99.90;;;;;;5053385;28;20091;-74
2022/03/29 05:08:56;;;;;;;43.40;21.90;;;7.20;99.90;;;;;;5053551;28;20043;-74
2022/03/29 05:11:22;;;;;;;38.63;22.48;;;7.20;99.90;;;;;;5053523;28;20061;-74
2022/03/29 05:13:49;;;;;;;39.42;23.30;;;7.20;99.90;;;;;;5053453;28;20032;-74
2022/03/29 05:16:14;;;;;;;35.88;21.27;;;7.20;99.90;;;;;;5053267;28;20086;-74
2022/03/29 05:18:42;;;;;;;44.97;22.15;;;7.20;99.90;;;;;;5035569;28;20041;-75
2022/03/29 05:21:08;;;;;;;36.55;21.45;;;7.20;99.90;;;;;;5018975;28;20037;-74
2022/03/29 05:23:33;;;;;;;39.53;23.33;;;7.20;99.90;;;;;;5035320;28;20395;-74
2022/03/29 05:25:59;;;;;;;40.70;23.38;;;7.20;99.90;;;;;;5052614;28;20040;-74
2022/03/29 05:28:24;;;;;;;43.20;23.65;;;7.30;99.90;;;;;;5035268;28;20040;-75
2022/03/29 05:30:50;;;;;;;44.30;23.63;;;7.30;99.90;;;;;;5053319;28;20068;-74
2022/03/29 05:33:18;;;;;;;42.10;24.30;;;7.30;99.90;;;;;;5053208;28;20064;-74
2022/03/29 05:35:44;;;;;;;39.25;23.55;;;7.30;99.90;;;;;;5052789;28;20068;-74
2022/03/29 05:38:10;;;;;;;37.45;22.58;;;7.20;99.90;;;;;;5052932;28;20445;-74
2022/03/29 05:40:35;;;;;;;40.90;24.25;;;7.30;99.90;;;;;;5052827;28;20090;-74
2022/03/29 05:43:01;;;;;;;38.88;24.00;;;7.30;99.90;;;;;;5053138;28;20041;-74
2022/03/29 05:45:29;;;;;;;41.03;25.10;;;7.30;99.90;;;;;;5034677;28;20045;-75
2022/03/29 05:50:39;;;;;;;43.13;24.85;;;7.30;99.90;;;;;;5052777;28;20044;-74
2022/03/29 05:53:05;;;;;;;43.55;22.73;;;7.30;99.90;;;;;;5052541;28;20060;-75
2022/03/29 05:55:31;;;;;;;40.83;23.98;;;7.30;99.90;;;;;;5034734;28;20410;-74
2022/03/29 05:57:56;;;;;;;47.15;26.15;;;7.30;99.90;;;;;;5052805;28;20037;-74
2022/03/29 06:00:23;;;;;;;44.20;26.13;;;7.30;99.90;;;;;;5052679;28;20041;-74
2022/03/29 06:02:50;;;;;;;42.03;24.23;;;7.30;99.90;;;;;;5052592;28;20041;-74
2022/03/29 06:05:16;;;;;;;45.88;24.52;;;7.30;99.90;;;;;;5052353;28;20046;-75
2022/03/29 06:07:41;;;;;;;47.15;26.98;;;7.30;99.90;;;;;;5051481;28;20033;-75
2022/03/29 06:10:07;;;;;;;43.00;23.88;;;7.30;99.90;;;;;;5052569;28;20072;-74
2022/03/29 06:12:34;;;;;;;47.15;24.55;;;7.30;99.90;;;;;;5052529;28;20044;-74
2022/03/29 06:15:04;;;;;;;47.75;26.08;;;7.30;99.90;;;;;;5034364;28;20045;-75
2022/03/29 06:17:30;;;;;;;43.67;26.15;;;7.30;99.90;;;;;;5051982;28;20045;-75
2022/03/29 06:19:55;;;;;;;39.03;25.38;;;7.30;99.90;;;;;;5052071;28;20430;-74
2022/03/29 06:22:21;;;;;;;44.42;25.92;;;7.30;99.90;;;;;;5034088;28;20039;-74
2022/03/29 06:24:47;;;;;;;43.85;24.13;;;7.30;99.90;;;;;;5052102;28;20076;-75
2022/03/29 06:27:13;;;;;;;46.22;26.08;;;7.30;99.90;;;;;;5051702;28;20037;-74
2022/03/29 06:29:39;;;;;;;47.05;25.45;;;7.30;99.90;;;;;;5034173;28;20521;-75
2022/03/29 06:32:05;;;;;;;42.80;25.88;;;7.30;99.90;;;;;;5052033;28;20037;-75
2022/03/29 06:34:31;;;;;;;45.70;24.92;;;7.40;99.90;;;;;;5051778;28;20037;-75
2022/03/29 06:36:56;;;;;;;46.40;27.02;;;7.40;99.90;;;;;;5033871;28;20372;-75
2022/03/29 06:39:22;;;;;;;45.13;26.02;;;7.40;99.90;;;;;;5052047;28;20044;-74
2022/03/29 06:41:48;;;;;;;45.30;26.83;;;7.40;99.90;;;;;;5051940;28;20074;-74
2022/03/29 06:44:13;;;;;;;49.28;26.15;;;7.40;99.90;;;;;;5051790;28;20095;-74
2022/03/29 06:46:39;;;;;;;51.35;25.83;;;7.40;99.90;;;;;;5051035;28;20037;-74
2022/03/29 06:49:06;;;;;;;48.88;26.48;;;7.40;99.90;;;;;;5051787;28;20052;-74
2022/03/29 06:51:35;;;;;;;47.97;25.70;;;7.40;99.90;;;;;;5051625;28;20037;-74
2022/03/29 06:54:05;;;;;;;40.70;24.83;;;7.40;99.90;;;;;;5034053;28;20032;-75
2022/03/29 06:56:31;;;;;;;45.35;25.25;;;7.50;99.90;;;;;;5051222;28;20052;-74
2022/03/29 06:58:57;;;;;;;44.05;26.67;;;7.50;99.90;;;;;;5051584;28;20495;-73
2022/03/29 07:01:23;;;;;;;46.25;25.83;;;7.50;99.90;;;;;;5051717;28;20044;-73
2022/03/29 07:03:49;;;;;;;45.50;24.88;;;7.50;99.90;;;;;;5051523;28;20041;-72
2022/03/29 07:06:14;;;;;;;51.40;26.17;;;7.50;99.90;;;;;;5050996;28;20112;-72
2022/03/29 07:11:16;;;;;;;46.17;26.48;;;7.50;99.90;;;;;;5051717;28;20040;-73
2022/03/29 07:11:25;;;;;;;49.83;25.13;;;7.60;99.90;;;;;;5051310;28;20063;-72
2022/03/29 07:13:51;;;;;;;45.88;26.35;;;7.50;99.90;;;;;;5051481;28;20033;-73
2022/03/29 07:16:17;;;;;;;52.20;26.88;;;7.50;99.90;;;;;;5051101;28;20033;-72
2022/03/29 07:18:43;;;;;;;48.63;25.55;;;7.50;99.90;;;;;;5052971;28;20039;-72
2022/03/29 07:21:10;;;;;;;44.78;26.55;;;7.60;99.90;;;;;;5055627;28;20033;-72
2022/03/29 07:23:36;;;;;;;41.33;25.27;;;7.60;99.90;;;;;;5055381;28;20599;-72
2022/03/29 07:26:02;;;;;;;41.58;23.15;;;7.60;99.90;;;;;;5055255;28;20099;-73
2022/03/29 07:28:27;;;;;;;43.85;23.83;;;7.70;99.90;;;;;;5055381;28;20104;-74
2022/03/29 07:30:53;;;;;;;39.25;20.70;;;7.70;99.90;;;;;;5055372;28;20040;-73
2022/03/29 07:33:19;;;;;;;43.30;24.27;;;7.70;99.90;;;;;;5055185;28;20568;-73
2022/03/29 07:35:45;;;;;;;39.97;22.50;;;7.70;99.90;;;;;;5054797;28;20560;-73
2022/03/29 07:38:12;;;;;;;51.97;24.50;;;7.80;99.90;;;;;;5055153;28;20120;-73
2022/03/29 07:40:39;;;;;;;40.05;23.95;;;7.80;99.90;;;;;;5062871;28;20101;-73
2022/03/29 07:43:06;;;;;;;45.50;22.80;;;7.70;99.90;;;;;;5066328;28;20155;-73
2022/03/29 07:45:32;;;;;;;42.03;23.60;;;7.80;99.90;;;;;;5074526;28;20036;-72
2022/03/29 07:47:58;;;;;;;54.92;24.40;;;7.90;99.90;;;;;;5074859;28;20041;-73
2022/03/29 07:50:26;;;;;;;41.53;23.02;;;7.90;99.90;;;;;;5075057;28;20044;-72
2022/03/29 07:52:52;;;;;;;46.20;23.02;;;8.00;99.90;;;;;;5056863;28;20497;-72
2022/03/29 07:55:18;;;;;;;39.47;22.58;;;8.10;99.90;;;;;;5056719;28;20066;-72
2022/03/29 07:57:45;;;;;;;42.10;24.30;;;8.10;99.90;;;;;;5074760;28;20468;-73
2022/03/29 08:03:19;;;;;;;43.55;24.30;;;8.20;99.90;;;;;;5061501;28;20103;-73
2022/03/29 08:05:47;;;;;;;40.72;21.90;;;8.30;99.90;;;;;;5066165;28;20143;-72
2022/03/29 08:08:14;;;;;;;44.88;22.23;;;8.40;99.90;;;;;;5074600;28;20078;-73
2022/03/29 08:10:41;;;;;;;37.70;22.05;;;8.50;99.90;;;;;;5074503;28;20051;-72
2022/03/29 08:13:08;;;;;;;50.03;23.05;;;8.40;99.90;;;;;;5074762;28;20492;-72
2022/03/29 08:15:35;;;;;;;43.75;22.95;;;8.50;99.90;;;;;;5074230;28;20067;-73
2022/03/29 08:18:01;;;;;;;41.92;21.38;;;8.60;99.90;;;;;;5074333;28;20036;-73
2022/03/29 08:20:29;;;;;;;32.83;20.00;;;8.60;99.90;;;;;;5070922;28;20055;-73
2022/03/29 08:22:59;;;;;;;36.67;19.50;;;8.60;99.90;;;;;;5074338;28;20490;-72
2022/03/29 08:25:24;;;;;;;32.67;19.73;;;8.60;99.90;;;;;;5056287;28;20123;-72
2022/03/29 08:27:50;;;;;;;35.65;20.17;;;8.50;99.90;;;;;;5074323;28;20124;-72
2022/03/29 08:30:16;;;;;;;40.83;19.30;;;8.50;99.90;;;;;;5073622;28;20415;-72
2022/03/29 08:32:42;;;;;;;35.10;20.02;;;8.50;99.90;;;;;;5074223;28;20098;-71
2022/03/29 08:35:11;;;;;;;34.42;18.65;;;8.60;99.90;;;;;;5056086;28;20123;-72
2022/03/29 08:37:36;;;;;;;39.85;19.50;;;8.70;99.90;;;;;;5073739;28;20097;-72
2022/03/29 08:40:06;;;;;;;32.50;19.13;;;8.90;99.90;;;;;;5074155;28;20076;-73
2022/03/29 08:42:32;;;;;;;44.40;18.98;;;8.80;99.90;;;;;;5073887;28;20041;-72
2022/03/29 08:44:59;;;;;;;35.50;19.15;;;8.90;99.90;;;;;;5074129;28;20033;-73
2022/03/29 08:47:25;;;;;;;35.38;19.50;;;8.80;99.90;;;;;;5073517;28;20061;-73
2022/03/29 08:49:51;;;;;;;34.50;20.52;;;8.80;99.90;;;;;;5073916;28;20051;-72
2022/03/29 08:52:18;;;;;;;39.05;19.88;;;8.70;99.90;;;;;;5073552;28;20036;-73
2022/03/29 08:54:44;;;;;;;38.17;21.27;;;8.70;99.90;;;;;;5073947;28;20116;-73
2022/03/29 08:57:11;;;;;;;34.33;20.27;;;8.70;99.90;;;;;;5073395;28;20051;-73
2022/03/29 08:59:37;;;;;;;40.92;20.30;;;8.70;99.90;;;;;;5073733;28;20048;-72
2022/03/29 09:02:16;;;;;;;36.92;20.63;;;8.70;99.90;;;;;;5070788;28;20697;-72
2022/03/29 09:04:43;;;;;;;33.95;18.38;;;8.70;99.90;;;;;;5060571;28;20033;-72
2022/03/29 09:07:09;;;;;;;43.63;17.88;;;8.60;99.90;;;;;;5035597;28;20040;-73
2022/03/29 09:09:41;;;;;;;34.60;15.77;;;8.60;99.90;;;;;;5018902;28;20091;-73
2022/03/29 09:12:12;;;;;;;40.15;15.63;;;8.50;99.90;;;;;;5035786;28;20142;-72
2022/03/29 09:15:02;;;;;;;32.47;15.70;;;8.60;99.90;;;;;;5035693;28;20080;-73
2022/03/29 09:17:42;;;;;;;31.77;15.73;;;8.70;99.90;;;;;;5043141;28;20048;-73
2022/03/29 09:20:13;;;;;;;29.73;15.95;;;8.70;99.90;;;;;;5053240;28;20049;-73
2022/03/29 09:22:50;;;;;;;31.70;15.77;;;8.80;99.90;;;;;;5053282;28;20036;-73
2022/03/29 09:25:48;;;;;;;27.98;14.90;;;8.90;99.90;;;;;;5034603;28;20040;-72
2022/03/29 09:28:21;;;;;;;28.73;15.80;;;9.00;99.90;;;;;;5038515;28;20045;-72
2022/03/29 09:30:52;;;;;;;35.07;14.67;;;9.00;99.90;;;;;;5057298;28;20044;-72
2022/03/29 09:33:20;;;;;;;30.92;14.73;;;9.10;99.90;;;;;;5054311;28;20622;-73
2022/03/29 09:36:20;;;;;;;33.78;14.07;;;9.10;99.90;;;;;;5056809;28;20033;-73
2022/03/29 09:38:47;;;;;;;32.10;14.38;;;9.40;99.90;;;;;;5050734;28;20407;-74
2022/03/29 09:41:30;;;;;;;27.33;13.88;;;9.30;99.90;;;;;;5056472;28;20450;-71
2022/03/29 09:44:10;;;;;;;24.03;12.63;;;9.40;99.90;;;;;;5058631;28;20028;-73
2022/03/29 09:46:59;;;;;;;28.00;12.25;;;9.40;99.90;;;;;;5041565;28;20263;-73
2022/03/29 09:49:25;;;;;;;23.90;12.05;;;9.50;99.90;;;;;;5045216;28;20037;-74
2022/03/29 09:52:11;;;;;;;24.70;11.95;;;9.60;99.90;;;;;;5057492;28;20040;-74
2022/03/29 09:54:40;;;;;;;25.38;12.32;;;9.60;99.90;;;;;;5051883;28;20091;-72
2022/03/29 09:57:06;;;;;;;27.90;12.18;;;9.70;99.90;;;;;;5052265;28;20090;-75
2022/03/29 09:59:32;;;;;;;24.50;12.20;;;10.00;99.90;;;;;;5034407;28;20037;-74
2022/03/29 10:01:58;;;;;;;24.05;11.82;;;10.20;99.90;;;;;;5034512;28;20441;-73
2022/03/29 10:04:28;;;;;;;30.50;12.70;;;10.20;99.90;;;;;;5034327;28;20037;-73
2022/03/29 10:07:02;;;;;;;24.13;10.68;;;10.10;99.70;;;;;;5058450;28;20068;-74
2022/03/29 10:09:30;;;;;;;28.95;11.65;;;10.20;99.50;;;;;;5034197;28;20048;-74
2022/03/29 10:12:07;;;;;;;23.83;11.13;;;10.10;99.00;;;;;;5052181;28;20102;-75
2022/03/29 10:14:36;;;;;;;18.90;10.50;;;10.20;99.80;;;;;;5052129;28;20045;-73
2022/03/29 10:17:03;;;;;;;28.58;10.85;;;10.10;99.50;;;;;;5033681;28;20652;-73
2022/03/29 10:19:28;;;;;;;26.08;11.32;;;10.00;98.80;;;;;;5033620;28;20125;-74
2022/03/29 10:21:55;;;;;;;27.02;11.45;;;9.90;99.00;;;;;;5033979;28;20553;-74
2022/03/29 10:24:22;;;;;;;29.77;10.85;;;10.00;99.90;;;;;;5014588;28;20038;-73
2022/03/29 10:26:51;;;;;;;23.35;11.23;;;10.00;99.60;;;;;;5051349;28;20522;-74
2022/03/29 10:29:17;;;;;;;28.00;11.32;;;10.10;99.90;;;;;;5051684;28;20560;-74
2022/03/29 10:32:05;;;;;;;23.55;10.85;;;9.80;99.20;;;;;;5051562;28;20049;-74
2022/03/29 10:34:42;;;;;;;24.65;11.57;;;9.80;98.80;;;;;;5036420;28;20047;-74
2022/03/29 10:37:12;;;;;;;24.55;11.00;;;9.60;99.50;;;;;;5035999;28;20045;-73
2022/03/29 10:39:46;;;;;;;32.90;11.85;;;9.60;99.90;;;;;;5033553;28;20049;-73
2022/03/29 10:42:39;;;;;;;38.08;11.60;;;9.70;99.90;;;;;;5033562;28;20506;-73
2022/03/29 10:45:18;;;;;;;25.40;11.95;;;9.90;99.90;;;;;;5028649;28;20072;-74
2022/03/29 10:47:54;;;;;;;26.17;10.15;;;10.00;98.50;;;;;;5050008;28;20041;-74
2022/03/29 10:50:19;;;;;;;24.85;10.10;;;10.00;99.30;;;;;;5017207;28;20072;-74
2022/03/29 10:52:47;;;;;;;23.67;9.90;;;9.90;97.80;;;;;;5033353;28;20134;-74
2022/03/29 10:55:21;;;;;;;26.30;10.30;;;9.80;97.80;;;;;;5051641;28;20047;-74
2022/03/29 10:58:06;;;;;;;23.83;9.65;;;9.80;97.00;;;;;;5033638;28;20438;-73
2022/03/29 11:00:33;;;;;;;16.73;7.85;;;9.60;96.60;;;;;;5051331;28;20048;-72
2022/03/29 11:03:15;;;;;;;21.33;8.80;;;9.60;97.60;;;;;;5051533;28;20036;-73
2022/03/29 11:06:10;;;;;;;21.85;8.50;;;9.80;97.00;;;;;;5033625;28;20080;-74
2022/03/29 11:08:37;;;;;;;19.27;8.10;;;9.80;97.10;;;;;;5033711;28;20068;-73
2022/03/29 11:11:04;;;;;;;23.42;8.60;;;9.90;96.70;;;;;;5033687;28;20540;-73
2022/03/29 11:13:32;;;;;;;21.10;9.40;;;9.90;96.00;;;;;;5033463;28;20040;-74
2022/03/29 11:16:02;;;;;;;21.50;9.63;;;10.00;95.70;;;;;;5051340;28;20045;-73
2022/03/29 11:18:30;;;;;;;21.80;8.45;;;10.00;95.70;;;;;;5039790;28;20141;-74
2022/03/29 11:21:02;;;;;;;24.10;10.23;;;10.20;95.90;;;;;;5057581;28;20041;-74
2022/03/29 11:23:45;;;;;;;27.75;9.43;;;10.30;95.20;;;;;;5051515;28;20037;-74
2022/03/29 11:26:16;;;;;;;23.92;9.15;;;10.20;93.80;;;;;;5050831;28;20051;-73
2022/03/29 11:28:57;;;;;;;26.20;10.02;;;10.30;94.60;;;;;;5033348;28;20040;-73
2022/03/29 11:31:31;;;;;;;16.73;9.02;;;10.40;94.00;;;;;;5033381;28;20029;-73
2022/03/29 11:33:56;;;;;;;24.13;8.52;;;10.60;94.00;;;;;;5051363;28;20045;-74
2022/03/29 11:36:22;;;;;;;22.42;8.13;;;10.50;93.20;;;;;;5033192;28;20036;-74
2022/03/29 11:38:48;;;;;;;23.20;9.60;;;10.40;92.90;;;;;;5051084;28;20151;-73
2022/03/29 11:41:21;;;;;;;18.63;8.75;;;10.30;93.40;;;;;;5033323;28;20631;-74
2022/03/29 11:43:56;;;;;;;26.08;7.82;;;10.20;93.60;;;;;;5051276;28;20037;-74
2022/03/29 11:46:21;;;;;;;29.13;7.30;;;10.20;94.60;;;;;;5033225;28;20469;-73
2022/03/29 11:48:51;;;;;;;19.25;7.82;;;10.20;95.20;;;;;;5051231;28;20121;-74
2022/03/29 11:51:17;;;;;;;14.40;6.72;;;10.20;94.80;;;;;;5032679;28;20036;-73
2022/03/29 11:53:43;;;;;;;17.88;7.38;;;10.20;94.40;;;;;;5053428;28;20032;-74
2022/03/29 11:56:12;;;;;;;19.88;8.15;;;10.20;94.80;;;;;;5052678;28;20032;-74
2022/03/29 11:58:43;;;;;;;18.60;7.60;;;10.20;94.70;;;;;;5053068;28;20040;-73
2022/03/29 12:01:10;;;;;;;16.95;7.80;;;10.00;94.30;;;;;;5052982;28;20045;-74
2022/03/29 12:03:37;;;;;;;22.58;8.02;;;10.10;94.20;;;;;;5052995;28;20546;-74
2022/03/29 12:06:14;;;;;;;22.98;8.75;;;10.00;94.30;;;;;;5073049;28;20048;-74
2022/03/29 12:08:53;;;;;;;22.88;7.88;;;9.90;93.30;;;;;;5074685;28;20047;-74
2022/03/29 12:11:37;;;;;;;20.13;8.20;;;9.80;93.70;;;;;;5056646;28;20079;-74
2022/03/29 12:14:07;;;;;;;;;;;9.90;95.20;;;;;;5056943;28;20044;-73
2022/03/29 12:16:40;;;;;;;19.23;7.95;;;9.70;92.80;;;;;;5074333;28;19952;-73
2022/03/29 12:19:11;;;;;;;27.35;9.35;;;9.80;94.40;;;;;;5074389;28;20484;-74
2022/03/29 12:21:37;;;;;;;17.85;9.30;;;9.90;93.60;;;;;;5074266;28;20505;-73
2022/03/29 12:24:09;;;;;;;21.80;7.95;;;9.90;93.60;;;;;;5056407;28;20032;-74
2022/03/29 12:26:42;;;;;;;16.63;8.05;;;10.00;93.00;;;;;;5074032;28;20037;-73
2022/03/29 12:29:11;;;;;;;29.13;11.02;;;10.20;92.30;;;;;;5074229;28;20045;-73
2022/03/29 12:31:37;;;;;;;21.90;8.65;;;10.10;92.50;;;;;;5056259;28;20048;-74
2022/03/29 12:34:04;;;;;;;22.35;8.50;;;10.10;91.80;;;;;;5056494;28;20124;-72
2022/03/29 12:36:29;;;;;;;19.30;8.25;;;10.00;91.60;;;;;;5073788;28;20055;-74
2022/03/29 12:39:03;;;;;;;18.45;8.38;;;10.10;91.50;;;;;;5073845;28;20048;-73
2022/03/29 12:41:32;;;;;;;;;;;10.10;91.30;;;;;;5074685;28;20037;-74
2022/03/29 12:43:58;;;;;;;21.52;9.27;;;10.10;91.10;;;;;;5056016;28;19923;-74
2022/03/29 12:46:24;;;;;;;19.15;9.10;;;10.10;91.60;;;;;;5073558;28;20032;-74
2022/03/29 12:48:50;;;;;;;19.88;9.25;;;9.90;91.50;;;;;;5055950;28;20042;-73
2022/03/29 12:51:30;;;;;;;23.63;8.82;;;10.10;91.70;;;;;;5055772;28;20127;-73